航空気象通報

ウインドサーファーのための航空気象通報による風予報です。

9/10-9/12の航空気象通報

2017年09月10日 23時07分54秒 | TAF
羽田空港
TAF RJTT 101105Z 1012/1118 19010KT 9999 FEW020
日本時間10日21時-12日03時:190度から10ノットの風


静岡空港
TAF RJNS 101107Z 1012/1118 30004KT 9999 FEW015 BKN030
BECMG 1022/1100 14010KT
BECMG 1112/1115 34005KT
TEMPO 1112/1118 4000 -SHRA BR FEW005 BKN008
日本時間10日21時-11日07時:300度から4ノットの風
07-09時:風が変化
09-21時:140度から10ノットの風
21-24時:風が変化
12日00-03時:340度から5ノットの風

但し、11日21時-12日03時の間:時々

福岡空港
TAF RJFF 101106Z 1012/1118 34004KT 9999 FEW030 SCT040
BECMG 1012/1014 15012KT
TEMPO 1100/1109 17017G27KT
TEMPO 1109/1115 3000 TSRA BR FEW005 SCT010 BKN025 FEW025CB
BECMG 1112/1115 30009KT
日本時間10日21時:340度から4ノットの風
21-23時:風が変化
23時-11日21時:150度から12ノットの風
但し、11日09-18時の間:時々170度から17ノット、突風27ノット
21-24時:風が変化
12日00-03時:300度から9ノットの風

但し、11日18-24時の間:時々

那覇空港
TAF ROAH 101107Z 1012/1118 11005KT 9999 FEW015 SCT025
日本時間10日21時-12日03時:110度から5ノットの風


石垣空港
TAF ROIG 101113Z 1012/1118 06004KT 9999 FEW015 SCT025
日本時間10日21時-12日03時:060度から4ノットの風


マウイのカフルイ空港
PHOG 101120Z 1012/1112 03008KT P6SM VCSH SCT030 SCT050
FM102000 04012G18KT P6SM VCSH SCT030 SCT050
FM110500 04007KT P6SM VCSH SCT030 SCT050 AMD LTD TO VIS AND WIND TIL 101600
ハワイ時間10日02-10時:030度から8ノットの風
10-19時:040度から12ノット、突風18ノット
19時-11日02時:040度から7ノットの風


サイパン空港
TAF PGSN 101128Z 1012/1112 10009KT P6SM VCSH FEW016 SCT040 BKN100
マリアナ時間10日22時-11日22時:100度から9ノットの風

コメント
この記事をはてなブックマークに追加